Ibiraiaras, Brazil
Current Conditions -  °F | °C
As of 9:00 PM on Friday 19 Dec 2014 (Local Time) from SBPF Reporting Station
Clear Clear  
Wind Chill: 77°   Ceiling: Unl
Heat Index: 79°   Visibility: 6mi
Dew Point: 63°   Wind: 9mph
Humidity: 61%   Direction: 150°SSE
Pressure: 29.77"   Gusts: NA
Location:  28.41°S, 51.72°W
Report Text: SBPF 192300Z 15008KT CAVOK 25/17 Q1008
Loading
Personal Weather Stations






























Interactive Weather Map New forecast layout! Learn more

10-Day Weather Forecast

Advertisements
Track Severe Weather on mobile